sensor_id;sensor_type;location;lat;lon;timestamp;temperature;humidity
19538;DHT22;9914;51.008;4.300;2023-10-08T00:01:35;17.00;99.90
19538;DHT22;9914;51.008;4.300;2023-10-08T00:04:01;17.10;99.90
19538;DHT22;9914;51.008;4.300;2023-10-08T00:06:30;17.30;99.90
19538;DHT22;9914;51.008;4.300;2023-10-08T00:08:56;17.10;99.90
19538;DHT22;9914;51.008;4.300;2023-10-08T00:11:26;17.10;99.90
19538;DHT22;9914;51.008;4.300;2023-10-08T00:13:54;17.00;99.90
19538;DHT22;9914;51.008;4.300;2023-10-08T00:16:22;16.90;99.90
19538;DHT22;9914;51.008;4.300;2023-10-08T00:18:47;17.00;99.90
19538;DHT22;9914;51.008;4.300;2023-10-08T00:21:17;17.00;99.90
19538;DHT22;9914;51.008;4.300;2023-10-08T00:23:45;16.90;99.90
19538;DHT22;9914;51.008;4.300;2023-10-08T00:26:33;16.80;99.90
19538;DHT22;9914;51.008;4.300;2023-10-08T00:29:05;16.90;99.90
19538;DHT22;9914;51.008;4.300;2023-10-08T00:31:47;16.80;99.90
19538;DHT22;9914;51.008;4.300;2023-10-08T00:34:16;16.90;99.90
19538;DHT22;9914;51.008;4.300;2023-10-08T00:36:47;16.90;99.90
19538;DHT22;9914;51.008;4.300;2023-10-08T00:39:14;17.00;99.90
19538;DHT22;9914;51.008;4.300;2023-10-08T00:41:48;17.00;99.90
19538;DHT22;9914;51.008;4.300;2023-10-08T00:44:14;16.80;99.90
19538;DHT22;9914;51.008;4.300;2023-10-08T00:46:56;16.70;99.90
19538;DHT22;9914;51.008;4.300;2023-10-08T00:49:24;16.80;99.90
19538;DHT22;9914;51.008;4.300;2023-10-08T00:51:55;16.70;99.90
19538;DHT22;9914;51.008;4.300;2023-10-08T00:54:29;16.70;99.90
19538;DHT22;9914;51.008;4.300;2023-10-08T00:56:59;16.80;99.90
19538;DHT22;9914;51.008;4.300;2023-10-08T00:59:34;16.90;99.90
19538;DHT22;9914;51.008;4.300;2023-10-08T01:02:10;16.80;99.90
19538;DHT22;9914;51.008;4.300;2023-10-08T01:04:40;16.90;99.90
19538;DHT22;9914;51.008;4.300;2023-10-08T01:07:06;16.70;99.90
19538;DHT22;9914;51.008;4.300;2023-10-08T01:09:39;16.80;99.90
19538;DHT22;9914;51.008;4.300;2023-10-08T01:12:18;16.70;99.90
19538;DHT22;9914;51.008;4.300;2023-10-08T01:14:46;16.60;99.90
19538;DHT22;9914;51.008;4.300;2023-10-08T01:17:14;16.50;99.90
19538;DHT22;9914;51.008;4.300;2023-10-08T01:19:46;16.50;99.90
19538;DHT22;9914;51.008;4.300;2023-10-08T01:22:16;16.40;99.90
19538;DHT22;9914;51.008;4.300;2023-10-08T01:24:44;16.30;99.90
19538;DHT22;9914;51.008;4.300;2023-10-08T01:27:17;16.40;99.90
19538;DHT22;9914;51.008;4.300;2023-10-08T01:29:53;16.50;99.90
19538;DHT22;9914;51.008;4.300;2023-10-08T01:32:19;16.50;99.90
19538;DHT22;9914;51.008;4.300;2023-10-08T01:34:46;16.40;99.90
19538;DHT22;9914;51.008;4.300;2023-10-08T01:37:16;16.30;99.90
19538;DHT22;9914;51.008;4.300;2023-10-08T01:39:45;16.20;99.90
19538;DHT22;9914;51.008;4.300;2023-10-08T01:42:14;16.30;99.90
19538;DHT22;9914;51.008;4.300;2023-10-08T01:44:47;16.20;99.90
19538;DHT22;9914;51.008;4.300;2023-10-08T01:47:16;16.10;99.90
19538;DHT22;9914;51.008;4.300;2023-10-08T01:49:43;16.20;99.90
19538;DHT22;9914;51.008;4.300;2023-10-08T01:52:10;16.20;99.90
19538;DHT22;9914;51.008;4.300;2023-10-08T01:55:02;16.20;99.90
19538;DHT22;9914;51.008;4.300;2023-10-08T01:57:28;16.20;99.90
19538;DHT22;9914;51.008;4.300;2023-10-08T01:59:54;16.20;99.90
19538;DHT22;9914;51.008;4.300;2023-10-08T02:02:19;16.10;99.90
19538;DHT22;9914;51.008;4.300;2023-10-08T02:04:45;16.10;99.90
19538;DHT22;9914;51.008;4.300;2023-10-08T02:07:11;16.30;99.90
19538;DHT22;9914;51.008;4.300;2023-10-08T02:09:40;16.30;99.90
19538;DHT22;9914;51.008;4.300;2023-10-08T02:12:06;16.20;99.90
19538;DHT22;9914;51.008;4.300;2023-10-08T02:14:32;16.20;99.90
19538;DHT22;9914;51.008;4.300;2023-10-08T02:17:01;16.20;99.90
19538;DHT22;9914;51.008;4.300;2023-10-08T02:19:32;16.20;99.90
19538;DHT22;9914;51.008;4.300;2023-10-08T02:21:58;16.20;99.90
19538;DHT22;9914;51.008;4.300;2023-10-08T02:24:24;16.30;99.90
19538;DHT22;9914;51.008;4.300;2023-10-08T02:26:54;16.10;99.90
19538;DHT22;9914;51.008;4.300;2023-10-08T02:29:30;16.20;99.90
19538;DHT22;9914;51.008;4.300;2023-10-08T02:31:56;16.30;99.90
19538;DHT22;9914;51.008;4.300;2023-10-08T02:34:22;16.30;99.90
19538;DHT22;9914;51.008;4.300;2023-10-08T02:36:48;16.30;99.90
19538;DHT22;9914;51.008;4.300;2023-10-08T02:39:14;16.10;99.90
19538;DHT22;9914;51.008;4.300;2023-10-08T02:41:46;16.10;99.90
19538;DHT22;9914;51.008;4.300;2023-10-08T02:44:16;16.30;99.90
19538;DHT22;9914;51.008;4.300;2023-10-08T02:46:46;16.10;99.90
19538;DHT22;9914;51.008;4.300;2023-10-08T02:49:17;16.10;99.90
19538;DHT22;9914;51.008;4.300;2023-10-08T02:51:47;16.10;99.90
19538;DHT22;9914;51.008;4.300;2023-10-08T02:54:16;16.10;99.90
19538;DHT22;9914;51.008;4.300;2023-10-08T02:56:53;16.20;99.90
19538;DHT22;9914;51.008;4.300;2023-10-08T02:59:28;16.20;99.90
19538;DHT22;9914;51.008;4.300;2023-10-08T03:01:54;16.20;99.90
19538;DHT22;9914;51.008;4.300;2023-10-08T03:04:23;16.30;99.90
19538;DHT22;9914;51.008;4.300;2023-10-08T03:06:49;16.20;99.90
19538;DHT22;9914;51.008;4.300;2023-10-08T03:09:19;16.40;99.90
19538;DHT22;9914;51.008;4.300;2023-10-08T03:11:58;16.40;99.90
19538;DHT22;9914;51.008;4.300;2023-10-08T03:14:33;16.40;99.90
19538;DHT22;9914;51.008;4.300;2023-10-08T03:17:07;16.40;99.90
19538;DHT22;9914;51.008;4.300;2023-10-08T03:19:33;16.30;99.90
19538;DHT22;9914;51.008;4.300;2023-10-08T03:22:00;16.30;99.90
19538;DHT22;9914;51.008;4.300;2023-10-08T03:24:29;16.40;99.90
19538;DHT22;9914;51.008;4.300;2023-10-08T03:26:56;16.30;99.90
19538;DHT22;9914;51.008;4.300;2023-10-08T03:29:34;16.30;99.90
19538;DHT22;9914;51.008;4.300;2023-10-08T03:32:08;16.30;99.90
19538;DHT22;9914;51.008;4.300;2023-10-08T03:34:38;16.20;99.90
19538;DHT22;9914;51.008;4.300;2023-10-08T03:37:08;16.30;99.90
19538;DHT22;9914;51.008;4.300;2023-10-08T03:39:34;16.20;99.90
19538;DHT22;9914;51.008;4.300;2023-10-08T03:42:26;16.10;99.90
19538;DHT22;9914;51.008;4.300;2023-10-08T03:44:55;16.20;99.90
19538;DHT22;9914;51.008;4.300;2023-10-08T03:47:22;16.10;99.90
19538;DHT22;9914;51.008;4.300;2023-10-08T03:49:51;16.10;99.90
19538;DHT22;9914;51.008;4.300;2023-10-08T03:52:17;16.00;99.90
19538;DHT22;9914;51.008;4.300;2023-10-08T03:54:51;15.90;99.90
19538;DHT22;9914;51.008;4.300;2023-10-08T03:57:49;15.90;99.90
19538;DHT22;9914;51.008;4.300;2023-10-08T04:00:22;15.90;99.90
19538;DHT22;9914;51.008;4.300;2023-10-08T04:02:55;15.90;99.90
19538;DHT22;9914;51.008;4.300;2023-10-08T04:05:22;15.90;99.90
19538;DHT22;9914;51.008;4.300;2023-10-08T04:07:53;16.00;99.90
19538;DHT22;9914;51.008;4.300;2023-10-08T04:10:26;15.80;99.90
19538;DHT22;9914;51.008;4.300;2023-10-08T04:13:04;15.80;99.90
19538;DHT22;9914;51.008;4.300;2023-10-08T04:15:34;15.80;99.90
19538;DHT22;9914;51.008;4.300;2023-10-08T04:18:00;15.70;99.90
19538;DHT22;9914;51.008;4.300;2023-10-08T04:20:28;15.70;99.90
19538;DHT22;9914;51.008;4.300;2023-10-08T04:22:59;15.60;99.90
19538;DHT22;9914;51.008;4.300;2023-10-08T04:25:32;15.50;99.90
19538;DHT22;9914;51.008;4.300;2023-10-08T04:27:59;15.50;99.90
19538;DHT22;9914;51.008;4.300;2023-10-08T04:30:26;15.50;99.90
19538;DHT22;9914;51.008;4.300;2023-10-08T04:33:02;15.50;99.90
19538;DHT22;9914;51.008;4.300;2023-10-08T04:35:39;15.50;99.90
19538;DHT22;9914;51.008;4.300;2023-10-08T04:38:23;15.50;99.90
19538;DHT22;9914;51.008;4.300;2023-10-08T04:40:51;15.50;99.90
19538;DHT22;9914;51.008;4.300;2023-10-08T04:43:24;15.60;99.90
19538;DHT22;9914;51.008;4.300;2023-10-08T04:46:02;15.60;99.90
19538;DHT22;9914;51.008;4.300;2023-10-08T04:48:31;15.40;99.90
19538;DHT22;9914;51.008;4.300;2023-10-08T04:51:02;15.30;99.90
19538;DHT22;9914;51.008;4.300;2023-10-08T04:53:33;15.20;99.90
19538;DHT22;9914;51.008;4.300;2023-10-08T04:56:07;15.20;99.90
19538;DHT22;9914;51.008;4.300;2023-10-08T04:58:48;15.20;99.90
19538;DHT22;9914;51.008;4.300;2023-10-08T05:01:14;15.30;99.90
19538;DHT22;9914;51.008;4.300;2023-10-08T05:03:56;15.30;99.90
19538;DHT22;9914;51.008;4.300;2023-10-08T05:06:29;15.30;99.90
19538;DHT22;9914;51.008;4.300;2023-10-08T05:09:04;15.40;99.90
19538;DHT22;9914;51.008;4.300;2023-10-08T05:11:39;15.40;99.90
19538;DHT22;9914;51.008;4.300;2023-10-08T05:14:25;15.40;99.90
19538;DHT22;9914;51.008;4.300;2023-10-08T05:17:06;15.40;99.90
19538;DHT22;9914;51.008;4.300;2023-10-08T05:19:38;15.30;99.90
19538;DHT22;9914;51.008;4.300;2023-10-08T05:22:11;15.40;99.90
19538;DHT22;9914;51.008;4.300;2023-10-08T05:24:50;15.40;99.90
19538;DHT22;9914;51.008;4.300;2023-10-08T05:27:38;15.40;99.90
19538;DHT22;9914;51.008;4.300;2023-10-08T05:30:27;15.30;99.90
19538;DHT22;9914;51.008;4.300;2023-10-08T05:33:19;15.30;99.90
19538;DHT22;9914;51.008;4.300;2023-10-08T05:35:52;15.30;99.90
19538;DHT22;9914;51.008;4.300;2023-10-08T05:38:28;15.20;99.90
19538;DHT22;9914;51.008;4.300;2023-10-08T05:41:00;15.10;99.90
19538;DHT22;9914;51.008;4.300;2023-10-08T05:43:33;15.10;99.90
19538;DHT22;9914;51.008;4.300;2023-10-08T05:46:10;15.10;99.90
19538;DHT22;9914;51.008;4.300;2023-10-08T05:49:05;15.10;99.90
19538;DHT22;9914;51.008;4.300;2023-10-08T05:51:32;15.10;99.90
19538;DHT22;9914;51.008;4.300;2023-10-08T05:54:30;15.10;99.90
19538;DHT22;9914;51.008;4.300;2023-10-08T05:57:07;15.20;99.90
19538;DHT22;9914;51.008;4.300;2023-10-08T05:59:38;15.20;99.90
19538;DHT22;9914;51.008;4.300;2023-10-08T06:02:30;15.20;99.90
19538;DHT22;9914;51.008;4.300;2023-10-08T06:10:28;15.60;99.90
19538;DHT22;9914;51.008;4.300;2023-10-08T06:13:08;15.50;99.90
19538;DHT22;9914;51.008;4.300;2023-10-08T06:15:57;15.60;99.90
19538;DHT22;9914;51.008;4.300;2023-10-08T06:18:30;15.50;99.90
19538;DHT22;9914;51.008;4.300;2023-10-08T06:21:04;15.50;99.90
19538;DHT22;9914;51.008;4.300;2023-10-08T06:23:40;15.40;99.90
19538;DHT22;9914;51.008;4.300;2023-10-08T06:26:08;15.40;99.90
19538;DHT22;9914;51.008;4.300;2023-10-08T06:28:38;15.40;99.90
19538;DHT22;9914;51.008;4.300;2023-10-08T06:31:05;15.50;99.90
19538;DHT22;9914;51.008;4.300;2023-10-08T06:33:51;15.50;99.90
19538;DHT22;9914;51.008;4.300;2023-10-08T06:36:17;15.60;99.90
19538;DHT22;9914;51.008;4.300;2023-10-08T06:38:48;15.60;99.90
19538;DHT22;9914;51.008;4.300;2023-10-08T06:41:15;15.70;99.90
19538;DHT22;9914;51.008;4.300;2023-10-08T06:43:44;15.90;99.90
19538;DHT22;9914;51.008;4.300;2023-10-08T06:46:28;16.00;99.90
19538;DHT22;9914;51.008;4.300;2023-10-08T06:48:58;16.00;99.90
19538;DHT22;9914;51.008;4.300;2023-10-08T06:51:24;16.10;99.90
19538;DHT22;9914;51.008;4.300;2023-10-08T06:53:51;16.10;99.90
19538;DHT22;9914;51.008;4.300;2023-10-08T06:56:19;16.20;99.90
19538;DHT22;9914;51.008;4.300;2023-10-08T06:58:46;16.20;99.90
19538;DHT22;9914;51.008;4.300;2023-10-08T07:01:18;16.30;99.90
19538;DHT22;9914;51.008;4.300;2023-10-08T07:03:56;16.40;99.90
19538;DHT22;9914;51.008;4.300;2023-10-08T07:06:29;16.50;99.90
19538;DHT22;9914;51.008;4.300;2023-10-08T07:09:00;16.60;99.90
19538;DHT22;9914;51.008;4.300;2023-10-08T07:11:31;16.50;99.90
19538;DHT22;9914;51.008;4.300;2023-10-08T07:14:01;16.60;99.90
19538;DHT22;9914;51.008;4.300;2023-10-08T07:16:26;16.60;99.90
19538;DHT22;9914;51.008;4.300;2023-10-08T07:18:53;16.70;99.90
19538;DHT22;9914;51.008;4.300;2023-10-08T07:21:27;16.80;99.90
19538;DHT22;9914;51.008;4.300;2023-10-08T07:24:05;16.90;99.90
19538;DHT22;9914;51.008;4.300;2023-10-08T07:26:35;17.00;99.90
19538;DHT22;9914;51.008;4.300;2023-10-08T07:29:05;17.20;99.90
19538;DHT22;9914;51.008;4.300;2023-10-08T07:31:34;17.10;99.90
19538;DHT22;9914;51.008;4.300;2023-10-08T07:34:00;17.30;99.90
19538;DHT22;9914;51.008;4.300;2023-10-08T07:36:44;17.20;99.90
19538;DHT22;9914;51.008;4.300;2023-10-08T07:39:09;17.20;99.90
19538;DHT22;9914;51.008;4.300;2023-10-08T07:41:50;17.30;99.90
19538;DHT22;9914;51.008;4.300;2023-10-08T07:44:16;17.60;99.90
19538;DHT22;9914;51.008;4.300;2023-10-08T07:46:47;17.80;99.90
19538;DHT22;9914;51.008;4.300;2023-10-08T07:49:13;17.90;99.90
19538;DHT22;9914;51.008;4.300;2023-10-08T07:51:40;18.10;99.90
19538;DHT22;9914;51.008;4.300;2023-10-08T07:54:06;18.10;99.90
19538;DHT22;9914;51.008;4.300;2023-10-08T07:56:35;18.20;99.90
19538;DHT22;9914;51.008;4.300;2023-10-08T07:59:03;18.20;99.90
19538;DHT22;9914;51.008;4.300;2023-10-08T08:01:34;18.20;99.90
19538;DHT22;9914;51.008;4.300;2023-10-08T08:04:00;18.30;99.90
19538;DHT22;9914;51.008;4.300;2023-10-08T08:06:25;18.30;99.90
19538;DHT22;9914;51.008;4.300;2023-10-08T08:08:51;18.30;99.90
19538;DHT22;9914;51.008;4.300;2023-10-08T08:11:17;18.40;99.90
19538;DHT22;9914;51.008;4.300;2023-10-08T08:13:44;18.50;99.90
19538;DHT22;9914;51.008;4.300;2023-10-08T08:16:14;18.50;99.90
19538;DHT22;9914;51.008;4.300;2023-10-08T08:21:10;18.70;99.90
19538;DHT22;9914;51.008;4.300;2023-10-08T08:23:44;18.80;99.90
19538;DHT22;9914;51.008;4.300;2023-10-08T08:26:20;18.80;99.90
19538;DHT22;9914;51.008;4.300;2023-10-08T08:28:55;19.00;99.90
19538;DHT22;9914;51.008;4.300;2023-10-08T08:31:23;19.10;99.90
19538;DHT22;9914;51.008;4.300;2023-10-08T08:33:49;19.20;99.90
19538;DHT22;9914;51.008;4.300;2023-10-08T08:36:35;19.30;99.90
19538;DHT22;9914;51.008;4.300;2023-10-08T08:39:05;19.30;99.90
19538;DHT22;9914;51.008;4.300;2023-10-08T08:41:39;19.40;99.90
19538;DHT22;9914;51.008;4.300;2023-10-08T08:44:05;19.60;99.90
19538;DHT22;9914;51.008;4.300;2023-10-08T08:46:37;19.70;99.90
19538;DHT22;9914;51.008;4.300;2023-10-08T08:49:04;19.80;99.90
19538;DHT22;9914;51.008;4.300;2023-10-08T08:51:36;19.70;99.90
19538;DHT22;9914;51.008;4.300;2023-10-08T08:54:02;19.70;99.90
19538;DHT22;9914;51.008;4.300;2023-10-08T08:56:33;19.70;99.90
19538;DHT22;9914;51.008;4.300;2023-10-08T08:59:00;19.70;99.90
19538;DHT22;9914;51.008;4.300;2023-10-08T09:01:27;19.90;99.90
19538;DHT22;9914;51.008;4.300;2023-10-08T09:04:02;20.00;99.90
19538;DHT22;9914;51.008;4.300;2023-10-08T09:06:37;20.10;99.90
19538;DHT22;9914;51.008;4.300;2023-10-08T09:09:06;20.10;99.90
19538;DHT22;9914;51.008;4.300;2023-10-08T09:11:51;20.10;99.90
19538;DHT22;9914;51.008;4.300;2023-10-08T09:14:25;20.20;99.90
19538;DHT22;9914;51.008;4.300;2023-10-08T09:16:51;20.20;99.90
19538;DHT22;9914;51.008;4.300;2023-10-08T09:19:17;20.20;99.90
19538;DHT22;9914;51.008;4.300;2023-10-08T09:22:10;20.20;99.90
19538;DHT22;9914;51.008;4.300;2023-10-08T09:24:39;20.20;99.90
19538;DHT22;9914;51.008;4.300;2023-10-08T09:27:09;20.20;99.90
19538;DHT22;9914;51.008;4.300;2023-10-08T09:29:42;20.20;99.90
19538;DHT22;9914;51.008;4.300;2023-10-08T09:32:09;20.30;99.90
19538;DHT22;9914;51.008;4.300;2023-10-08T09:34:35;20.50;99.90
19538;DHT22;9914;51.008;4.300;2023-10-08T09:37:01;20.70;99.90
19538;DHT22;9914;51.008;4.300;2023-10-08T09:39:28;20.70;99.90
19538;DHT22;9914;51.008;4.300;2023-10-08T09:42:00;20.80;99.90
19538;DHT22;9914;51.008;4.300;2023-10-08T09:44:28;20.90;99.90
19538;DHT22;9914;51.008;4.300;2023-10-08T09:47:03;21.00;99.90
19538;DHT22;9914;51.008;4.300;2023-10-08T09:49:36;21.30;99.90
19538;DHT22;9914;51.008;4.300;2023-10-08T09:52:06;21.40;99.90
19538;DHT22;9914;51.008;4.300;2023-10-08T09:54:43;21.60;99.90
19538;DHT22;9914;51.008;4.300;2023-10-08T09:57:10;21.70;99.90
19538;DHT22;9914;51.008;4.300;2023-10-08T09:59:37;21.80;99.90
19538;DHT22;9914;51.008;4.300;2023-10-08T10:02:06;21.90;99.90
19538;DHT22;9914;51.008;4.300;2023-10-08T10:04:35;22.00;99.90
19538;DHT22;9914;51.008;4.300;2023-10-08T10:07:10;22.00;99.90
19538;DHT22;9914;51.008;4.300;2023-10-08T10:09:38;22.00;99.90
19538;DHT22;9914;51.008;4.300;2023-10-08T10:12:05;21.90;99.90
19538;DHT22;9914;51.008;4.300;2023-10-08T10:14:54;22.10;99.90
19538;DHT22;9914;51.008;4.300;2023-10-08T10:17:25;22.30;99.90
19538;DHT22;9914;51.008;4.300;2023-10-08T10:20:00;22.30;99.90
19538;DHT22;9914;51.008;4.300;2023-10-08T10:22:33;22.30;99.90
19538;DHT22;9914;51.008;4.300;2023-10-08T10:25:03;22.40;99.90
19538;DHT22;9914;51.008;4.300;2023-10-08T10:27:42;22.40;99.90
19538;DHT22;9914;51.008;4.300;2023-10-08T10:30:08;22.60;99.90
19538;DHT22;9914;51.008;4.300;2023-10-08T10:32:37;22.80;99.90
19538;DHT22;9914;51.008;4.300;2023-10-08T10:35:04;22.90;99.90
19538;DHT22;9914;51.008;4.300;2023-10-08T10:37:37;22.90;99.90
19538;DHT22;9914;51.008;4.300;2023-10-08T10:40:23;23.00;99.90
19538;DHT22;9914;51.008;4.300;2023-10-08T10:42:58;23.10;99.90
19538;DHT22;9914;51.008;4.300;2023-10-08T10:45:28;23.30;99.90
19538;DHT22;9914;51.008;4.300;2023-10-08T10:48:09;23.50;99.90
19538;DHT22;9914;51.008;4.300;2023-10-08T10:50:40;23.60;99.90
19538;DHT22;9914;51.008;4.300;2023-10-08T10:53:24;23.70;99.90
19538;DHT22;9914;51.008;4.300;2023-10-08T10:55:52;23.70;99.90
19538;DHT22;9914;51.008;4.300;2023-10-08T10:58:30;23.70;99.90
19538;DHT22;9914;51.008;4.300;2023-10-08T11:01:04;23.70;99.90
19538;DHT22;9914;51.008;4.300;2023-10-08T11:03:41;23.90;99.90
19538;DHT22;9914;51.008;4.300;2023-10-08T11:06:08;23.90;99.90
19538;DHT22;9914;51.008;4.300;2023-10-08T11:08:41;24.00;99.90
19538;DHT22;9914;51.008;4.300;2023-10-08T11:11:11;23.90;99.90
19538;DHT22;9914;51.008;4.300;2023-10-08T11:13:37;24.00;99.90
19538;DHT22;9914;51.008;4.300;2023-10-08T11:16:05;24.10;99.90
19538;DHT22;9914;51.008;4.300;2023-10-08T11:18:32;24.10;99.90
19538;DHT22;9914;51.008;4.300;2023-10-08T11:21:09;24.10;99.90
19538;DHT22;9914;51.008;4.300;2023-10-08T11:23:45;24.10;99.90
19538;DHT22;9914;51.008;4.300;2023-10-08T11:26:19;24.20;99.90
19538;DHT22;9914;51.008;4.300;2023-10-08T11:28:45;24.10;99.90
19538;DHT22;9914;51.008;4.300;2023-10-08T11:31:16;24.40;99.90
19538;DHT22;9914;51.008;4.300;2023-10-08T11:33:46;24.40;99.90
19538;DHT22;9914;51.008;4.300;2023-10-08T11:36:20;24.50;99.90
19538;DHT22;9914;51.008;4.300;2023-10-08T11:38:54;24.60;99.90
19538;DHT22;9914;51.008;4.300;2023-10-08T11:41:27;24.70;99.90
19538;DHT22;9914;51.008;4.300;2023-10-08T11:43:57;24.40;99.90
19538;DHT22;9914;51.008;4.300;2023-10-08T11:46:25;24.30;99.90
19538;DHT22;9914;51.008;4.300;2023-10-08T11:48:53;24.30;99.90
19538;DHT22;9914;51.008;4.300;2023-10-08T11:51:23;24.40;99.90
19538;DHT22;9914;51.008;4.300;2023-10-08T11:53:50;24.60;99.90
19538;DHT22;9914;51.008;4.300;2023-10-08T11:56:16;24.60;99.90
19538;DHT22;9914;51.008;4.300;2023-10-08T11:58:43;24.60;99.90
19538;DHT22;9914;51.008;4.300;2023-10-08T12:01:12;24.70;99.90
19538;DHT22;9914;51.008;4.300;2023-10-08T12:03:46;24.70;99.90
19538;DHT22;9914;51.008;4.300;2023-10-08T12:06:16;24.80;99.90
19538;DHT22;9914;51.008;4.300;2023-10-08T12:08:47;25.00;99.90
19538;DHT22;9914;51.008;4.300;2023-10-08T12:11:15;25.00;99.90
19538;DHT22;9914;51.008;4.300;2023-10-08T12:13:42;25.10;99.90
19538;DHT22;9914;51.008;4.300;2023-10-08T12:16:12;25.10;99.90
19538;DHT22;9914;51.008;4.300;2023-10-08T12:18:46;25.10;99.90
19538;DHT22;9914;51.008;4.300;2023-10-08T12:21:16;25.00;99.90
19538;DHT22;9914;51.008;4.300;2023-10-08T12:23:43;24.90;99.90
19538;DHT22;9914;51.008;4.300;2023-10-08T12:26:10;25.00;99.90
19538;DHT22;9914;51.008;4.300;2023-10-08T12:28:50;25.20;99.90
19538;DHT22;9914;51.008;4.300;2023-10-08T12:31:19;25.50;99.90
19538;DHT22;9914;51.008;4.300;2023-10-08T12:33:50;25.70;99.90
19538;DHT22;9914;51.008;4.300;2023-10-08T12:36:24;25.70;99.90
19538;DHT22;9914;51.008;4.300;2023-10-08T12:38:52;25.80;99.90
19538;DHT22;9914;51.008;4.300;2023-10-08T12:41:27;25.70;99.90
19538;DHT22;9914;51.008;4.300;2023-10-08T12:43:53;25.70;99.90
19538;DHT22;9914;51.008;4.300;2023-10-08T12:46:20;25.70;99.90
19538;DHT22;9914;51.008;4.300;2023-10-08T12:48:53;25.70;99.90
19538;DHT22;9914;51.008;4.300;2023-10-08T12:51:26;25.60;99.90
19538;DHT22;9914;51.008;4.300;2023-10-08T12:53:52;25.50;99.90
19538;DHT22;9914;51.008;4.300;2023-10-08T12:56:28;25.30;99.90
19538;DHT22;9914;51.008;4.300;2023-10-08T12:59:14;25.10;99.90
19538;DHT22;9914;51.008;4.300;2023-10-08T13:01:46;25.10;99.90
19538;DHT22;9914;51.008;4.300;2023-10-08T13:04:17;25.00;99.90
19538;DHT22;9914;51.008;4.300;2023-10-08T13:06:50;25.00;99.90
19538;DHT22;9914;51.008;4.300;2023-10-08T13:09:17;25.00;99.90
19538;DHT22;9914;51.008;4.300;2023-10-08T13:11:42;25.20;99.90
19538;DHT22;9914;51.008;4.300;2023-10-08T13:14:08;25.20;99.90
19538;DHT22;9914;51.008;4.300;2023-10-08T13:16:34;24.70;99.90
19538;DHT22;9914;51.008;4.300;2023-10-08T13:19:03;24.60;99.90
19538;DHT22;9914;51.008;4.300;2023-10-08T13:21:29;25.00;99.90
19538;DHT22;9914;51.008;4.300;2023-10-08T13:23:57;25.40;99.90
19538;DHT22;9914;51.008;4.300;2023-10-08T13:26:25;25.60;99.90
19538;DHT22;9914;51.008;4.300;2023-10-08T13:28:56;25.80;99.90
19538;DHT22;9914;51.008;4.300;2023-10-08T13:31:23;25.90;99.90
19538;DHT22;9914;51.008;4.300;2023-10-08T13:33:50;25.70;99.90
19538;DHT22;9914;51.008;4.300;2023-10-08T13:36:18;25.80;99.90
19538;DHT22;9914;51.008;4.300;2023-10-08T13:38:44;25.90;99.90
19538;DHT22;9914;51.008;4.300;2023-10-08T13:41:11;26.00;99.90
19538;DHT22;9914;51.008;4.300;2023-10-08T13:43:48;26.10;99.90
19538;DHT22;9914;51.008;4.300;2023-10-08T13:46:17;26.10;99.90
19538;DHT22;9914;51.008;4.300;2023-10-08T13:48:45;26.20;99.90
19538;DHT22;9914;51.008;4.300;2023-10-08T13:51:22;26.40;99.90
19538;DHT22;9914;51.008;4.300;2023-10-08T13:53:53;26.50;99.90
19538;DHT22;9914;51.008;4.300;2023-10-08T13:56:21;26.50;99.90
19538;DHT22;9914;51.008;4.300;2023-10-08T13:58:52;26.50;99.90
19538;DHT22;9914;51.008;4.300;2023-10-08T14:01:23;26.50;99.90
19538;DHT22;9914;51.008;4.300;2023-10-08T14:03:51;26.40;99.90
19538;DHT22;9914;51.008;4.300;2023-10-08T14:06:19;26.30;99.90
19538;DHT22;9914;51.008;4.300;2023-10-08T14:08:46;26.30;99.90
19538;DHT22;9914;51.008;4.300;2023-10-08T14:11:19;26.20;99.90
19538;DHT22;9914;51.008;4.300;2023-10-08T14:13:51;26.20;99.90
19538;DHT22;9914;51.008;4.300;2023-10-08T14:16:21;26.20;99.90
19538;DHT22;9914;51.008;4.300;2023-10-08T14:18:54;26.10;99.90
19538;DHT22;9914;51.008;4.300;2023-10-08T14:21:20;26.00;99.90
19538;DHT22;9914;51.008;4.300;2023-10-08T14:23:53;25.80;99.90
19538;DHT22;9914;51.008;4.300;2023-10-08T14:26:19;25.60;99.90
19538;DHT22;9914;51.008;4.300;2023-10-08T14:28:48;25.50;99.90
19538;DHT22;9914;51.008;4.300;2023-10-08T14:31:20;25.40;99.90
19538;DHT22;9914;51.008;4.300;2023-10-08T14:33:48;25.40;99.90
19538;DHT22;9914;51.008;4.300;2023-10-08T14:36:33;25.30;99.90
19538;DHT22;9914;51.008;4.300;2023-10-08T14:39:18;25.40;99.90
19538;DHT22;9914;51.008;4.300;2023-10-08T14:42:02;25.50;99.90
19538;DHT22;9914;51.008;4.300;2023-10-08T14:44:47;25.70;99.90
19538;DHT22;9914;51.008;4.300;2023-10-08T14:47:14;25.70;99.90
19538;DHT22;9914;51.008;4.300;2023-10-08T14:49:41;25.70;99.90
19538;DHT22;9914;51.008;4.300;2023-10-08T14:52:09;25.90;99.90
19538;DHT22;9914;51.008;4.300;2023-10-08T14:54:34;25.90;99.90
19538;DHT22;9914;51.008;4.300;2023-10-08T14:57:00;26.20;99.90
19538;DHT22;9914;51.008;4.300;2023-10-08T14:59:28;26.30;99.90
19538;DHT22;9914;51.008;4.300;2023-10-08T15:01:56;26.50;99.90
19538;DHT22;9914;51.008;4.300;2023-10-08T15:04:22;26.60;99.90
19538;DHT22;9914;51.008;4.300;2023-10-08T15:06:48;26.80;99.90
19538;DHT22;9914;51.008;4.300;2023-10-08T15:09:15;26.90;99.90
19538;DHT22;9914;51.008;4.300;2023-10-08T15:11:53;27.00;99.90
19538;DHT22;9914;51.008;4.300;2023-10-08T15:14:19;26.90;99.90
19538;DHT22;9914;51.008;4.300;2023-10-08T15:16:45;26.90;99.90
19538;DHT22;9914;51.008;4.300;2023-10-08T15:19:21;26.70;99.90
19538;DHT22;9914;51.008;4.300;2023-10-08T15:21:50;26.50;99.90
19538;DHT22;9914;51.008;4.300;2023-10-08T15:24:20;26.40;99.90
19538;DHT22;9914;51.008;4.300;2023-10-08T15:26:53;26.20;99.90
19538;DHT22;9914;51.008;4.300;2023-10-08T15:29:20;26.30;99.90
19538;DHT22;9914;51.008;4.300;2023-10-08T15:31:47;26.60;99.90
19538;DHT22;9914;51.008;4.300;2023-10-08T15:34:14;27.20;99.90
19538;DHT22;9914;51.008;4.300;2023-10-08T15:36:40;27.60;99.90
19538;DHT22;9914;51.008;4.300;2023-10-08T15:39:06;27.80;99.90
19538;DHT22;9914;51.008;4.300;2023-10-08T15:41:36;27.90;99.90
19538;DHT22;9914;51.008;4.300;2023-10-08T15:44:02;28.00;99.90
19538;DHT22;9914;51.008;4.300;2023-10-08T15:46:28;27.90;99.90
19538;DHT22;9914;51.008;4.300;2023-10-08T15:48:53;27.90;99.90
19538;DHT22;9914;51.008;4.300;2023-10-08T15:51:20;27.70;99.90
19538;DHT22;9914;51.008;4.300;2023-10-08T15:53:46;27.80;99.90
19538;DHT22;9914;51.008;4.300;2023-10-08T15:56:12;27.90;99.90
19538;DHT22;9914;51.008;4.300;2023-10-08T15:58:37;28.10;99.90
19538;DHT22;9914;51.008;4.300;2023-10-08T16:01:03;28.50;99.90
19538;DHT22;9914;51.008;4.300;2023-10-08T16:03:29;28.70;99.90
19538;DHT22;9914;51.008;4.300;2023-10-08T16:05:54;28.60;99.90
19538;DHT22;9914;51.008;4.300;2023-10-08T16:08:21;28.50;99.90
19538;DHT22;9914;51.008;4.300;2023-10-08T16:10:47;28.30;99.90
19538;DHT22;9914;51.008;4.300;2023-10-08T16:13:12;28.20;99.90
19538;DHT22;9914;51.008;4.300;2023-10-08T16:15:39;28.10;99.90
19538;DHT22;9914;51.008;4.300;2023-10-08T16:18:06;27.80;99.90